sensor_id;sensor_type;location;lat;lon;timestamp;temperature;humidity
52889;DHT22;41413;52.770;6.892;2022-12-05T00:01:27;3.70;99.90
52889;DHT22;41413;52.770;6.892;2022-12-05T00:03:56;3.70;99.90
52889;DHT22;41413;52.770;6.892;2022-12-05T00:06:25;3.80;99.90
52889;DHT22;41413;52.770;6.892;2022-12-05T00:08:52;3.80;99.90
52889;DHT22;41413;52.770;6.892;2022-12-05T00:11:22;3.80;99.90
52889;DHT22;41413;52.770;6.892;2022-12-05T00:13:51;3.80;99.90
52889;DHT22;41413;52.770;6.892;2022-12-05T00:16:20;3.80;99.90
52889;DHT22;41413;52.770;6.892;2022-12-05T00:18:48;3.90;99.90
52889;DHT22;41413;52.770;6.892;2022-12-05T00:21:17;3.80;99.90
52889;DHT22;41413;52.770;6.892;2022-12-05T00:23:44;3.90;99.90
52889;DHT22;41413;52.770;6.892;2022-12-05T00:26:11;3.90;99.90
52889;DHT22;41413;52.770;6.892;2022-12-05T00:28:39;3.90;99.90
52889;DHT22;41413;52.770;6.892;2022-12-05T00:31:13;3.90;99.90
52889;DHT22;41413;52.770;6.892;2022-12-05T00:33:42;3.90;99.90
52889;DHT22;41413;52.770;6.892;2022-12-05T00:36:18;3.90;99.90
52889;DHT22;41413;52.770;6.892;2022-12-05T00:38:45;3.90;99.90
52889;DHT22;41413;52.770;6.892;2022-12-05T00:41:15;4.10;99.90
52889;DHT22;41413;52.770;6.892;2022-12-05T00:43:42;4.00;99.90
52889;DHT22;41413;52.770;6.892;2022-12-05T00:46:11;4.00;99.90
52889;DHT22;41413;52.770;6.892;2022-12-05T00:48:39;4.00;99.90
52889;DHT22;41413;52.770;6.892;2022-12-05T00:51:13;4.00;99.90
52889;DHT22;41413;52.770;6.892;2022-12-05T00:53:40;4.00;99.90
52889;DHT22;41413;52.770;6.892;2022-12-05T00:56:10;4.00;99.90
52889;DHT22;41413;52.770;6.892;2022-12-05T00:58:38;4.00;99.90
52889;DHT22;41413;52.770;6.892;2022-12-05T01:01:13;4.10;99.90
52889;DHT22;41413;52.770;6.892;2022-12-05T01:03:41;4.10;99.90
52889;DHT22;41413;52.770;6.892;2022-12-05T01:06:09;4.10;99.90
52889;DHT22;41413;52.770;6.892;2022-12-05T01:08:36;4.10;99.90
52889;DHT22;41413;52.770;6.892;2022-12-05T01:11:04;4.00;99.90
52889;DHT22;41413;52.770;6.892;2022-12-05T01:13:32;4.10;99.90
52889;DHT22;41413;52.770;6.892;2022-12-05T01:15:59;4.00;99.90
52889;DHT22;41413;52.770;6.892;2022-12-05T01:18:26;4.10;99.90
52889;DHT22;41413;52.770;6.892;2022-12-05T01:20:53;4.10;99.90
52889;DHT22;41413;52.770;6.892;2022-12-05T01:23:21;4.10;99.90
52889;DHT22;41413;52.770;6.892;2022-12-05T01:25:50;4.10;99.90
52889;DHT22;41413;52.770;6.892;2022-12-05T01:28:17;4.10;99.90
52889;DHT22;41413;52.770;6.892;2022-12-05T01:30:49;4.10;99.90
52889;DHT22;41413;52.770;6.892;2022-12-05T01:33:16;4.10;99.90
52889;DHT22;41413;52.770;6.892;2022-12-05T01:35:43;4.00;99.90
52889;DHT22;41413;52.770;6.892;2022-12-05T01:38:11;4.00;99.90
52889;DHT22;41413;52.770;6.892;2022-12-05T01:40:39;4.10;99.90
52889;DHT22;41413;52.770;6.892;2022-12-05T01:43:13;4.10;99.90
52889;DHT22;41413;52.770;6.892;2022-12-05T01:45:43;4.10;99.90
52889;DHT22;41413;52.770;6.892;2022-12-05T01:48:19;4.10;99.90
52889;DHT22;41413;52.770;6.892;2022-12-05T01:50:48;4.10;99.90
52889;DHT22;41413;52.770;6.892;2022-12-05T01:53:17;4.10;99.90
52889;DHT22;41413;52.770;6.892;2022-12-05T01:55:46;4.10;99.90
52889;DHT22;41413;52.770;6.892;2022-12-05T01:58:14;4.10;99.90
52889;DHT22;41413;52.770;6.892;2022-12-05T02:00:41;4.10;99.90
52889;DHT22;41413;52.770;6.892;2022-12-05T02:03:18;4.10;99.90
52889;DHT22;41413;52.770;6.892;2022-12-05T02:05:48;4.10;99.90
52889;DHT22;41413;52.770;6.892;2022-12-05T02:08:15;4.10;99.90
52889;DHT22;41413;52.770;6.892;2022-12-05T02:10:54;4.10;99.90
52889;DHT22;41413;52.770;6.892;2022-12-05T02:16:46;4.10;99.90
52889;DHT22;41413;52.770;6.892;2022-12-05T02:31:11;4.20;99.90
52889;DHT22;41413;52.770;6.892;2022-12-05T02:34:03;4.20;99.90
52889;DHT22;41413;52.770;6.892;2022-12-05T02:36:41;4.20;99.90
52889;DHT22;41413;52.770;6.892;2022-12-05T02:39:39;4.20;99.90
52889;DHT22;41413;52.770;6.892;2022-12-05T02:42:09;4.20;99.90
52889;DHT22;41413;52.770;6.892;2022-12-05T02:44:40;4.20;99.90
52889;DHT22;41413;52.770;6.892;2022-12-05T02:47:09;4.20;99.90
52889;DHT22;41413;52.770;6.892;2022-12-05T02:49:39;4.20;99.90
52889;DHT22;41413;52.770;6.892;2022-12-05T02:52:10;4.20;99.90
52889;DHT22;41413;52.770;6.892;2022-12-05T02:54:41;4.20;99.90
52889;DHT22;41413;52.770;6.892;2022-12-05T02:57:09;4.20;99.90
52889;DHT22;41413;52.770;6.892;2022-12-05T02:59:37;4.20;99.90
52889;DHT22;41413;52.770;6.892;2022-12-05T03:02:04;4.30;99.90
52889;DHT22;41413;52.770;6.892;2022-12-05T03:04:31;4.20;99.90
52889;DHT22;41413;52.770;6.892;2022-12-05T03:07:08;4.30;99.90
52889;DHT22;41413;52.770;6.892;2022-12-05T03:09:36;4.30;99.90
52889;DHT22;41413;52.770;6.892;2022-12-05T03:14:49;4.30;99.90
52889;DHT22;41413;52.770;6.892;2022-12-05T03:17:21;4.30;99.90
52889;DHT22;41413;52.770;6.892;2022-12-05T03:22:29;4.30;99.90
52889;DHT22;41413;52.770;6.892;2022-12-05T03:24:58;4.90;99.90
52889;DHT22;41413;52.770;6.892;2022-12-05T03:30:21;4.40;99.90
52889;DHT22;41413;52.770;6.892;2022-12-05T03:43:11;4.40;99.90
52889;DHT22;41413;52.770;6.892;2022-12-05T03:45:50;4.40;99.90
52889;DHT22;41413;52.770;6.892;2022-12-05T03:48:25;4.50;99.90
52889;DHT22;41413;52.770;6.892;2022-12-05T03:50:57;4.50;99.90
52889;DHT22;41413;52.770;6.892;2022-12-05T03:53:49;4.50;99.90
52889;DHT22;41413;52.770;6.892;2022-12-05T03:56:34;4.50;99.90
52889;DHT22;41413;52.770;6.892;2022-12-05T03:59:05;4.50;99.90
52889;DHT22;41413;52.770;6.892;2022-12-05T04:01:33;4.50;99.90
52889;DHT22;41413;52.770;6.892;2022-12-05T04:04:07;4.50;99.90
52889;DHT22;41413;52.770;6.892;2022-12-05T04:06:38;4.50;99.90
52889;DHT22;41413;52.770;6.892;2022-12-05T04:09:11;4.50;99.90
52889;DHT22;41413;52.770;6.892;2022-12-05T04:11:47;4.50;99.90
52889;DHT22;41413;52.770;6.892;2022-12-05T04:14:23;4.50;99.90
52889;DHT22;41413;52.770;6.892;2022-12-05T04:17:01;4.60;99.90
52889;DHT22;41413;52.770;6.892;2022-12-05T04:19:51;4.50;99.90
52889;DHT22;41413;52.770;6.892;2022-12-05T04:22:38;4.60;99.90
52889;DHT22;41413;52.770;6.892;2022-12-05T04:25:08;4.60;99.90
52889;DHT22;41413;52.770;6.892;2022-12-05T04:28:15;4.60;99.90
52889;DHT22;41413;52.770;6.892;2022-12-05T04:31:06;4.60;99.90
52889;DHT22;41413;52.770;6.892;2022-12-05T04:38:51;4.60;99.90
52889;DHT22;41413;52.770;6.892;2022-12-05T04:41:24;4.60;99.90
52889;DHT22;41413;52.770;6.892;2022-12-05T04:43:55;4.60;99.90
52889;DHT22;41413;52.770;6.892;2022-12-05T04:46:24;4.60;99.90
52889;DHT22;41413;52.770;6.892;2022-12-05T04:48:55;4.60;99.90
52889;DHT22;41413;52.770;6.892;2022-12-05T04:51:26;4.60;99.90
52889;DHT22;41413;52.770;6.892;2022-12-05T04:54:01;4.60;99.90
52889;DHT22;41413;52.770;6.892;2022-12-05T04:56:30;4.60;99.90
52889;DHT22;41413;52.770;6.892;2022-12-05T04:58:59;4.60;99.90
52889;DHT22;41413;52.770;6.892;2022-12-05T05:01:43;4.60;99.90
52889;DHT22;41413;52.770;6.892;2022-12-05T05:04:14;4.60;99.90
52889;DHT22;41413;52.770;6.892;2022-12-05T05:06:42;4.60;99.90
52889;DHT22;41413;52.770;6.892;2022-12-05T05:09:09;4.60;99.90
52889;DHT22;41413;52.770;6.892;2022-12-05T05:11:37;4.60;99.90
52889;DHT22;41413;52.770;6.892;2022-12-05T05:14:04;4.60;99.90
52889;DHT22;41413;52.770;6.892;2022-12-05T05:16:36;4.60;99.90
52889;DHT22;41413;52.770;6.892;2022-12-05T05:19:06;4.60;99.90
52889;DHT22;41413;52.770;6.892;2022-12-05T05:21:36;4.60;99.90
52889;DHT22;41413;52.770;6.892;2022-12-05T05:24:04;4.60;99.90
52889;DHT22;41413;52.770;6.892;2022-12-05T05:26:33;4.60;99.90
52889;DHT22;41413;52.770;6.892;2022-12-05T05:29:01;4.70;99.90
52889;DHT22;41413;52.770;6.892;2022-12-05T05:31:28;4.60;99.90
52889;DHT22;41413;52.770;6.892;2022-12-05T05:33:55;4.60;99.90
52889;DHT22;41413;52.770;6.892;2022-12-05T05:36:25;4.60;99.90
52889;DHT22;41413;52.770;6.892;2022-12-05T05:38:55;4.60;99.90
52889;DHT22;41413;52.770;6.892;2022-12-05T05:41:40;4.60;99.90
52889;DHT22;41413;52.770;6.892;2022-12-05T05:44:07;4.70;99.90
52889;DHT22;41413;52.770;6.892;2022-12-05T05:46:35;4.60;99.90
52889;DHT22;41413;52.770;6.892;2022-12-05T05:49:03;4.70;99.90
52889;DHT22;41413;52.770;6.892;2022-12-05T05:51:29;4.70;99.90
52889;DHT22;41413;52.770;6.892;2022-12-05T05:53:57;4.60;99.90
52889;DHT22;41413;52.770;6.892;2022-12-05T05:56:24;4.60;99.90
52889;DHT22;41413;52.770;6.892;2022-12-05T05:58:56;4.60;99.90
52889;DHT22;41413;52.770;6.892;2022-12-05T06:01:23;4.70;99.90
52889;DHT22;41413;52.770;6.892;2022-12-05T06:03:50;4.70;99.90
52889;DHT22;41413;52.770;6.892;2022-12-05T06:06:18;4.70;99.90
52889;DHT22;41413;52.770;6.892;2022-12-05T06:08:46;4.70;99.90
52889;DHT22;41413;52.770;6.892;2022-12-05T06:11:21;4.70;99.90
52889;DHT22;41413;52.770;6.892;2022-12-05T06:13:56;4.70;99.90
52889;DHT22;41413;52.770;6.892;2022-12-05T06:16:24;4.70;99.90
52889;DHT22;41413;52.770;6.892;2022-12-05T06:18:51;4.70;99.90
52889;DHT22;41413;52.770;6.892;2022-12-05T06:21:19;4.70;99.90
52889;DHT22;41413;52.770;6.892;2022-12-05T06:23:45;4.70;99.90
52889;DHT22;41413;52.770;6.892;2022-12-05T06:26:15;4.70;99.90
52889;DHT22;41413;52.770;6.892;2022-12-05T06:28:42;4.70;99.90
52889;DHT22;41413;52.770;6.892;2022-12-05T06:31:22;4.70;99.90
52889;DHT22;41413;52.770;6.892;2022-12-05T06:33:49;4.90;99.90
52889;DHT22;41413;52.770;6.892;2022-12-05T06:36:18;4.70;99.90
52889;DHT22;41413;52.770;6.892;2022-12-05T06:38:45;4.70;99.90
52889;DHT22;41413;52.770;6.892;2022-12-05T06:41:17;4.70;99.90
52889;DHT22;41413;52.770;6.892;2022-12-05T06:43:44;4.70;99.90
52889;DHT22;41413;52.770;6.892;2022-12-05T06:46:12;4.70;99.90
52889;DHT22;41413;52.770;6.892;2022-12-05T06:48:39;4.70;99.90
52889;DHT22;41413;52.770;6.892;2022-12-05T06:51:09;4.70;99.90
52889;DHT22;41413;52.770;6.892;2022-12-05T06:53:37;4.70;99.90
52889;DHT22;41413;52.770;6.892;2022-12-05T06:56:05;4.70;99.90
52889;DHT22;41413;52.770;6.892;2022-12-05T06:58:36;4.70;99.90
52889;DHT22;41413;52.770;6.892;2022-12-05T07:01:03;4.80;99.90
52889;DHT22;41413;52.770;6.892;2022-12-05T07:03:49;4.80;99.90
52889;DHT22;41413;52.770;6.892;2022-12-05T07:06:16;4.80;99.90
52889;DHT22;41413;52.770;6.892;2022-12-05T07:08:43;4.80;99.90
52889;DHT22;41413;52.770;6.892;2022-12-05T07:11:10;4.80;99.90
52889;DHT22;41413;52.770;6.892;2022-12-05T07:13:37;4.80;99.90
52889;DHT22;41413;52.770;6.892;2022-12-05T07:16:04;4.80;99.90
52889;DHT22;41413;52.770;6.892;2022-12-05T07:18:34;4.80;99.90
52889;DHT22;41413;52.770;6.892;2022-12-05T07:21:03;4.80;99.90
52889;DHT22;41413;52.770;6.892;2022-12-05T07:23:40;4.80;99.90
52889;DHT22;41413;52.770;6.892;2022-12-05T07:26:09;4.80;99.90
52889;DHT22;41413;52.770;6.892;2022-12-05T07:28:36;4.80;99.90
52889;DHT22;41413;52.770;6.892;2022-12-05T07:31:06;4.80;99.90
52889;DHT22;41413;52.770;6.892;2022-12-05T07:33:33;4.90;99.90
52889;DHT22;41413;52.770;6.892;2022-12-05T07:36:05;4.80;99.90
52889;DHT22;41413;52.770;6.892;2022-12-05T07:38:32;4.90;99.90
52889;DHT22;41413;52.770;6.892;2022-12-05T07:41:02;4.90;99.90
52889;DHT22;41413;52.770;6.892;2022-12-05T07:43:34;4.90;99.90
52889;DHT22;41413;52.770;6.892;2022-12-05T07:46:03;4.90;99.90
52889;DHT22;41413;52.770;6.892;2022-12-05T07:48:31;4.90;99.90
52889;DHT22;41413;52.770;6.892;2022-12-05T07:50:59;4.90;99.90
52889;DHT22;41413;52.770;6.892;2022-12-05T07:53:27;4.90;99.90
52889;DHT22;41413;52.770;6.892;2022-12-05T07:55:54;4.90;99.90
52889;DHT22;41413;52.770;6.892;2022-12-05T07:58:21;5.00;99.90
52889;DHT22;41413;52.770;6.892;2022-12-05T08:00:47;5.00;99.90
52889;DHT22;41413;52.770;6.892;2022-12-05T08:03:14;5.00;99.90
52889;DHT22;41413;52.770;6.892;2022-12-05T08:05:41;5.00;99.90
52889;DHT22;41413;52.770;6.892;2022-12-05T08:08:07;5.00;99.90
52889;DHT22;41413;52.770;6.892;2022-12-05T08:10:34;5.00;99.90
52889;DHT22;41413;52.770;6.892;2022-12-05T08:13:01;5.00;99.90
52889;DHT22;41413;52.770;6.892;2022-12-05T08:15:27;5.00;99.90
52889;DHT22;41413;52.770;6.892;2022-12-05T08:17:54;5.10;99.90
52889;DHT22;41413;52.770;6.892;2022-12-05T08:20:21;5.00;99.90
52889;DHT22;41413;52.770;6.892;2022-12-05T08:22:51;5.00;99.90
52889;DHT22;41413;52.770;6.892;2022-12-05T08:25:19;5.10;99.90
52889;DHT22;41413;52.770;6.892;2022-12-05T08:27:46;5.00;99.90
52889;DHT22;41413;52.770;6.892;2022-12-05T08:30:12;5.10;99.90
52889;DHT22;41413;52.770;6.892;2022-12-05T08:32:39;5.00;99.90
52889;DHT22;41413;52.770;6.892;2022-12-05T08:35:06;5.10;99.90
52889;DHT22;41413;52.770;6.892;2022-12-05T08:37:33;5.10;99.90
52889;DHT22;41413;52.770;6.892;2022-12-05T08:39:59;5.10;99.90
52889;DHT22;41413;52.770;6.892;2022-12-05T08:42:26;5.10;99.90
52889;DHT22;41413;52.770;6.892;2022-12-05T08:44:53;5.10;99.90
52889;DHT22;41413;52.770;6.892;2022-12-05T08:47:19;5.10;99.90
52889;DHT22;41413;52.770;6.892;2022-12-05T08:49:46;5.10;99.90
52889;DHT22;41413;52.770;6.892;2022-12-05T08:52:13;5.10;99.90
52889;DHT22;41413;52.770;6.892;2022-12-05T08:54:40;5.10;99.90
52889;DHT22;41413;52.770;6.892;2022-12-05T08:57:06;5.10;99.90
52889;DHT22;41413;52.770;6.892;2022-12-05T08:59:33;5.10;99.90
52889;DHT22;41413;52.770;6.892;2022-12-05T09:02:00;5.10;99.90
52889;DHT22;41413;52.770;6.892;2022-12-05T09:04:26;5.10;99.90
52889;DHT22;41413;52.770;6.892;2022-12-05T09:06:54;5.10;99.90
52889;DHT22;41413;52.770;6.892;2022-12-05T09:09:20;5.10;99.90
52889;DHT22;41413;52.770;6.892;2022-12-05T09:11:47;5.10;99.90
52889;DHT22;41413;52.770;6.892;2022-12-05T09:14:16;5.10;99.90
52889;DHT22;41413;52.770;6.892;2022-12-05T09:16:45;5.10;99.90
52889;DHT22;41413;52.770;6.892;2022-12-05T09:19:17;5.20;99.90
52889;DHT22;41413;52.770;6.892;2022-12-05T09:21:46;5.20;99.90
52889;DHT22;41413;52.770;6.892;2022-12-05T09:24:13;5.10;99.90
52889;DHT22;41413;52.770;6.892;2022-12-05T09:26:41;5.20;99.90
52889;DHT22;41413;52.770;6.892;2022-12-05T09:29:08;5.20;99.90
52889;DHT22;41413;52.770;6.892;2022-12-05T09:31:42;5.20;99.90
52889;DHT22;41413;52.770;6.892;2022-12-05T09:34:09;5.20;99.90
52889;DHT22;41413;52.770;6.892;2022-12-05T09:36:36;5.20;99.90
52889;DHT22;41413;52.770;6.892;2022-12-05T09:39:05;5.20;99.90
52889;DHT22;41413;52.770;6.892;2022-12-05T09:41:58;5.20;99.90
52889;DHT22;41413;52.770;6.892;2022-12-05T09:49:53;5.10;99.90
52889;DHT22;41413;52.770;6.892;2022-12-05T09:52:30;5.10;99.90
52889;DHT22;41413;52.770;6.892;2022-12-05T09:55:24;5.10;99.90
52889;DHT22;41413;52.770;6.892;2022-12-05T09:57:53;5.10;99.90
52889;DHT22;41413;52.770;6.892;2022-12-05T10:00:22;5.10;99.90
52889;DHT22;41413;52.770;6.892;2022-12-05T10:08:45;5.10;99.90
52889;DHT22;41413;52.770;6.892;2022-12-05T10:16:31;5.10;99.90
52889;DHT22;41413;52.770;6.892;2022-12-05T10:19:05;5.10;99.90
52889;DHT22;41413;52.770;6.892;2022-12-05T10:21:54;5.10;99.90
52889;DHT22;41413;52.770;6.892;2022-12-05T10:24:36;5.10;99.90
52889;DHT22;41413;52.770;6.892;2022-12-05T10:27:10;5.10;99.90
52889;DHT22;41413;52.770;6.892;2022-12-05T10:29:49;5.10;99.90
52889;DHT22;41413;52.770;6.892;2022-12-05T10:32:35;5.10;99.90
52889;DHT22;41413;52.770;6.892;2022-12-05T10:35:23;5.10;99.90
52889;DHT22;41413;52.770;6.892;2022-12-05T10:37:57;5.00;99.90
52889;DHT22;41413;52.770;6.892;2022-12-05T10:40:26;5.10;99.90
52889;DHT22;41413;52.770;6.892;2022-12-05T10:42:55;5.10;99.90
52889;DHT22;41413;52.770;6.892;2022-12-05T10:45:22;5.10;99.90
52889;DHT22;41413;52.770;6.892;2022-12-05T10:47:53;5.10;99.90
52889;DHT22;41413;52.770;6.892;2022-12-05T10:50:29;5.10;99.90
52889;DHT22;41413;52.770;6.892;2022-12-05T10:52:59;5.10;99.90
52889;DHT22;41413;52.770;6.892;2022-12-05T10:56:02;5.10;99.90
52889;DHT22;41413;52.770;6.892;2022-12-05T10:58:54;5.10;99.90
52889;DHT22;41413;52.770;6.892;2022-12-05T11:01:24;5.10;99.90
52889;DHT22;41413;52.770;6.892;2022-12-05T11:04:00;5.20;99.90
52889;DHT22;41413;52.770;6.892;2022-12-05T11:06:30;5.20;99.90
52889;DHT22;41413;52.770;6.892;2022-12-05T11:09:16;5.10;99.90
52889;DHT22;41413;52.770;6.892;2022-12-05T11:14:29;5.10;99.90
52889;DHT22;41413;52.770;6.892;2022-12-05T11:16:59;5.10;99.90
52889;DHT22;41413;52.770;6.892;2022-12-05T11:19:32;5.10;99.90
52889;DHT22;41413;52.770;6.892;2022-12-05T11:21:59;5.00;99.90
52889;DHT22;41413;52.770;6.892;2022-12-05T11:24:35;5.00;99.90
52889;DHT22;41413;52.770;6.892;2022-12-05T11:29:43;5.10;99.90
52889;DHT22;41413;52.770;6.892;2022-12-05T11:32:22;5.10;99.90
52889;DHT22;41413;52.770;6.892;2022-12-05T11:35:00;5.10;99.90
52889;DHT22;41413;52.770;6.892;2022-12-05T11:37:39;5.10;99.90
52889;DHT22;41413;52.770;6.892;2022-12-05T11:40:17;5.10;99.90
52889;DHT22;41413;52.770;6.892;2022-12-05T11:43:38;5.10;99.90
52889;DHT22;41413;52.770;6.892;2022-12-05T11:51:38;5.10;99.90
52889;DHT22;41413;52.770;6.892;2022-12-05T11:54:28;5.10;99.90
52889;DHT22;41413;52.770;6.892;2022-12-05T11:57:48;5.10;99.90
52889;DHT22;41413;52.770;6.892;2022-12-05T12:00:22;5.10;99.90
52889;DHT22;41413;52.770;6.892;2022-12-05T12:06:30;5.10;99.90
52889;DHT22;41413;52.770;6.892;2022-12-05T12:09:19;5.10;99.90
52889;DHT22;41413;52.770;6.892;2022-12-05T12:14:58;5.10;99.90
52889;DHT22;41413;52.770;6.892;2022-12-05T12:20:33;5.10;99.90
52889;DHT22;41413;52.770;6.892;2022-12-05T12:23:27;5.10;99.90
52889;DHT22;41413;52.770;6.892;2022-12-05T12:31:41;5.10;99.90
52889;DHT22;41413;52.770;6.892;2022-12-05T12:48:11;5.20;99.90
52889;DHT22;41413;52.770;6.892;2022-12-05T12:50:43;5.20;99.90
52889;DHT22;41413;52.770;6.892;2022-12-05T13:01:49;5.20;99.90
52889;DHT22;41413;52.770;6.892;2022-12-05T13:04:45;5.20;99.90
52889;DHT22;41413;52.770;6.892;2022-12-05T13:07:25;5.20;99.90
52889;DHT22;41413;52.770;6.892;2022-12-05T13:10:31;5.20;99.90
52889;DHT22;41413;52.770;6.892;2022-12-05T13:13:02;5.20;99.90
52889;DHT22;41413;52.770;6.892;2022-12-05T13:18:02;5.20;99.90
52889;DHT22;41413;52.770;6.892;2022-12-05T13:20:33;5.20;99.90
52889;DHT22;41413;52.770;6.892;2022-12-05T13:23:02;5.20;99.90
52889;DHT22;41413;52.770;6.892;2022-12-05T13:25:35;5.20;99.90
52889;DHT22;41413;52.770;6.892;2022-12-05T13:28:06;5.20;99.90
52889;DHT22;41413;52.770;6.892;2022-12-05T13:30:48;5.20;99.90
52889;DHT22;41413;52.770;6.892;2022-12-05T13:33:25;5.20;99.90
52889;DHT22;41413;52.770;6.892;2022-12-05T13:35:55;5.30;99.90
52889;DHT22;41413;52.770;6.892;2022-12-05T13:38:43;5.20;99.90
52889;DHT22;41413;52.770;6.892;2022-12-05T13:41:38;5.20;99.90
52889;DHT22;41413;52.770;6.892;2022-12-05T13:44:30;5.20;99.90
52889;DHT22;41413;52.770;6.892;2022-12-05T13:46:59;5.20;99.90
52889;DHT22;41413;52.770;6.892;2022-12-05T13:49:42;5.20;99.90
52889;DHT22;41413;52.770;6.892;2022-12-05T13:52:18;5.20;99.90
52889;DHT22;41413;52.770;6.892;2022-12-05T13:54:57;5.10;99.90
52889;DHT22;41413;52.770;6.892;2022-12-05T14:07:48;5.20;99.90
52889;DHT22;41413;52.770;6.892;2022-12-05T14:10:23;5.20;99.90
52889;DHT22;41413;52.770;6.892;2022-12-05T14:15:43;5.20;99.90
52889;DHT22;41413;52.770;6.892;2022-12-05T14:18:15;5.20;99.90
52889;DHT22;41413;52.770;6.892;2022-12-05T14:23:22;5.20;99.90
52889;DHT22;41413;52.770;6.892;2022-12-05T14:26:14;5.20;99.90
52889;DHT22;41413;52.770;6.892;2022-12-05T14:34:35;5.20;99.90
52889;DHT22;41413;52.770;6.892;2022-12-05T14:39:45;5.30;99.90
52889;DHT22;41413;52.770;6.892;2022-12-05T14:42:21;5.20;99.90
52889;DHT22;41413;52.770;6.892;2022-12-05T14:44:51;5.30;99.90
52889;DHT22;41413;52.770;6.892;2022-12-05T14:47:27;5.20;99.90
52889;DHT22;41413;52.770;6.892;2022-12-05T14:50:22;5.20;99.90
52889;DHT22;41413;52.770;6.892;2022-12-05T14:56:00;5.20;99.90
52889;DHT22;41413;52.770;6.892;2022-12-05T14:58:33;5.20;99.90
52889;DHT22;41413;52.770;6.892;2022-12-05T15:01:06;5.20;99.90
52889;DHT22;41413;52.770;6.892;2022-12-05T15:03:37;5.20;99.90
52889;DHT22;41413;52.770;6.892;2022-12-05T15:06:10;5.20;99.90
52889;DHT22;41413;52.770;6.892;2022-12-05T15:08:49;5.20;99.90
52889;DHT22;41413;52.770;6.892;2022-12-05T15:11:23;5.20;99.90
52889;DHT22;41413;52.770;6.892;2022-12-05T15:14:11;5.20;99.90
52889;DHT22;41413;52.770;6.892;2022-12-05T15:16:43;5.30;99.90
52889;DHT22;41413;52.770;6.892;2022-12-05T15:19:19;5.30;99.90
52889;DHT22;41413;52.770;6.892;2022-12-05T15:21:52;5.30;99.90
52889;DHT22;41413;52.770;6.892;2022-12-05T15:24:22;5.20;99.90
52889;DHT22;41413;52.770;6.892;2022-12-05T15:32:00;5.20;99.90
52889;DHT22;41413;52.770;6.892;2022-12-05T15:37:23;5.20;99.90
52889;DHT22;41413;52.770;6.892;2022-12-05T15:39:52;5.20;99.90
52889;DHT22;41413;52.770;6.892;2022-12-05T15:42:25;5.20;99.90
52889;DHT22;41413;52.770;6.892;2022-12-05T15:47:39;5.20;99.90
52889;DHT22;41413;52.770;6.892;2022-12-05T15:50:20;5.20;99.90
52889;DHT22;41413;52.770;6.892;2022-12-05T15:53:00;5.20;99.90
52889;DHT22;41413;52.770;6.892;2022-12-05T15:55:47;5.20;99.90
52889;DHT22;41413;52.770;6.892;2022-12-05T15:58:24;5.20;99.90
52889;DHT22;41413;52.770;6.892;2022-12-05T16:00:57;5.20;99.90
52889;DHT22;41413;52.770;6.892;2022-12-05T16:08:51;5.20;99.90
52889;DHT22;41413;52.770;6.892;2022-12-05T16:11:18;5.20;99.90
52889;DHT22;41413;52.770;6.892;2022-12-05T16:13:51;5.20;99.90
52889;DHT22;41413;52.770;6.892;2022-12-05T16:16:22;5.20;99.90
52889;DHT22;41413;52.770;6.892;2022-12-05T16:18:55;5.20;99.90
52889;DHT22;41413;52.770;6.892;2022-12-05T16:21:31;5.20;99.90
52889;DHT22;41413;52.770;6.892;2022-12-05T16:24:17;5.10;99.90
52889;DHT22;41413;52.770;6.892;2022-12-05T16:26:53;5.10;99.90
52889;DHT22;41413;52.770;6.892;2022-12-05T16:29:28;5.10;99.90
52889;DHT22;41413;52.770;6.892;2022-12-05T16:32:00;5.10;99.90
52889;DHT22;41413;52.770;6.892;2022-12-05T16:34:28;5.10;99.90
52889;DHT22;41413;52.770;6.892;2022-12-05T16:36:58;5.10;99.90
52889;DHT22;41413;52.770;6.892;2022-12-05T16:39:26;5.10;99.90
52889;DHT22;41413;52.770;6.892;2022-12-05T16:41:54;5.10;99.90
52889;DHT22;41413;52.770;6.892;2022-12-05T16:46:55;5.10;99.90
52889;DHT22;41413;52.770;6.892;2022-12-05T16:49:33;5.10;99.90
52889;DHT22;41413;52.770;6.892;2022-12-05T16:54:34;5.10;99.90
52889;DHT22;41413;52.770;6.892;2022-12-05T16:57:01;5.10;99.90
52889;DHT22;41413;52.770;6.892;2022-12-05T16:59:34;5.10;99.90
52889;DHT22;41413;52.770;6.892;2022-12-05T17:02:03;5.10;99.90
52889;DHT22;41413;52.770;6.892;2022-12-05T17:04:30;5.10;99.90
52889;DHT22;41413;52.770;6.892;2022-12-05T17:06:57;5.10;99.90
52889;DHT22;41413;52.770;6.892;2022-12-05T17:09:24;5.10;99.90
52889;DHT22;41413;52.770;6.892;2022-12-05T17:12:00;5.10;99.90
52889;DHT22;41413;52.770;6.892;2022-12-05T17:14:28;5.10;99.90
52889;DHT22;41413;52.770;6.892;2022-12-05T17:16:54;5.10;99.90
52889;DHT22;41413;52.770;6.892;2022-12-05T17:19:21;5.10;99.90
52889;DHT22;41413;52.770;6.892;2022-12-05T17:21:48;5.10;99.90
52889;DHT22;41413;52.770;6.892;2022-12-05T17:24:17;5.10;99.90
52889;DHT22;41413;52.770;6.892;2022-12-05T17:26:44;5.10;99.90
52889;DHT22;41413;52.770;6.892;2022-12-05T17:29:12;5.10;99.90
52889;DHT22;41413;52.770;6.892;2022-12-05T17:31:38;5.10;99.90
52889;DHT22;41413;52.770;6.892;2022-12-05T17:34:13;5.10;99.90
52889;DHT22;41413;52.770;6.892;2022-12-05T17:36:44;5.10;99.90
52889;DHT22;41413;52.770;6.892;2022-12-05T17:39:11;5.10;99.90
52889;DHT22;41413;52.770;6.892;2022-12-05T17:41:38;5.10;99.90
52889;DHT22;41413;52.770;6.892;2022-12-05T17:44:05;5.00;99.90
52889;DHT22;41413;52.770;6.892;2022-12-05T17:46:31;5.10;99.90
52889;DHT22;41413;52.770;6.892;2022-12-05T17:48:58;5.10;99.90
52889;DHT22;41413;52.770;6.892;2022-12-05T17:51:25;5.10;99.90
52889;DHT22;41413;52.770;6.892;2022-12-05T17:53:52;5.00;99.90
52889;DHT22;41413;52.770;6.892;2022-12-05T17:56:20;5.10;99.90
52889;DHT22;41413;52.770;6.892;2022-12-05T17:58:47;5.00;99.90
52889;DHT22;41413;52.770;6.892;2022-12-05T18:01:16;5.10;99.90
52889;DHT22;41413;52.770;6.892;2022-12-05T18:03:43;5.00;99.90
52889;DHT22;41413;52.770;6.892;2022-12-05T18:06:10;5.10;99.90
52889;DHT22;41413;52.770;6.892;2022-12-05T18:08:37;5.10;99.90
52889;DHT22;41413;52.770;6.892;2022-12-05T18:11:09;5.00;99.90
52889;DHT22;41413;52.770;6.892;2022-12-05T18:13:36;5.10;99.90
52889;DHT22;41413;52.770;6.892;2022-12-05T18:16:03;5.10;99.90
52889;DHT22;41413;52.770;6.892;2022-12-05T18:18:30;5.10;99.90
52889;DHT22;41413;52.770;6.892;2022-12-05T18:21:08;5.10;99.90
52889;DHT22;41413;52.770;6.892;2022-12-05T18:23:35;5.00;99.90
52889;DHT22;41413;52.770;6.892;2022-12-05T18:26:05;5.00;99.90
52889;DHT22;41413;52.770;6.892;2022-12-05T18:28:33;5.00;99.90
52889;DHT22;41413;52.770;6.892;2022-12-05T18:31:13;5.00;99.90
52889;DHT22;41413;52.770;6.892;2022-12-05T18:33:42;5.00;99.90
52889;DHT22;41413;52.770;6.892;2022-12-05T18:36:11;5.00;99.90
52889;DHT22;41413;52.770;6.892;2022-12-05T18:38:39;4.90;99.90
52889;DHT22;41413;52.770;6.892;2022-12-05T18:41:08;4.90;99.90
52889;DHT22;41413;52.770;6.892;2022-12-05T18:43:35;5.00;99.90
52889;DHT22;41413;52.770;6.892;2022-12-05T18:46:03;5.00;99.90
52889;DHT22;41413;52.770;6.892;2022-12-05T18:48:32;4.90;99.90
52889;DHT22;41413;52.770;6.892;2022-12-05T18:51:14;5.00;99.90